Time;durP1;ratioP1;P1;durP2;ratioP2;P2;SDS_P1;SDS_P2;PMS_P1;PMS_P2;Temp;Humidity;BMP_temperature;BMP_pressure;BME280_temperature;BME280_humidity;BME280_pressure;Samples;Min_cycle;Max_cycle;Signal;HPM_P1;HPM_P2
2022/03/20 11:05:08;;;;;;;7.10;3.40;;;;;;;18.97;23.16;101404.25;5072444;27;20391;-77
2022/03/20 11:07:35;;;;;;;8.60;3.47;;;;;;;19.00;22.26;101393.66;5050375;28;20285;-78
2022/03/20 11:10:02;;;;;;;4.75;2.90;;;;;;;19.26;21.67;101374.97;5035386;28;20075;-77
2022/03/20 11:12:31;;;;;;;8.38;3.22;;;;;;;19.24;22.35;101380.25;5052476;28;20040;-76
2022/03/20 11:14:58;;;;;;;8.40;3.00;;;;;;;19.42;22.31;101397.53;5052216;28;20435;-78
2022/03/20 11:17:26;;;;;;;8.20;3.20;;;;;;;19.17;22.71;101381.19;5052364;28;20041;-77
2022/03/20 11:19:53;;;;;;;8.13;2.25;;;;;;;19.49;22.89;101369.41;5050972;28;20087;-76
2022/03/20 11:22:23;;;;;;;8.13;2.85;;;;;;;20.03;21.64;101380.06;5035382;28;20044;-78
2022/03/20 11:24:51;;;;;;;5.90;2.75;;;;;;;20.13;21.26;101350.03;5052686;28;20036;-76
2022/03/20 11:27:27;;;;;;;7.45;2.80;;;;;;;19.67;21.41;101382.34;5065771;28;20028;-77
2022/03/20 11:30:01;;;;;;;4.82;2.80;;;;;;;18.84;22.94;101384.22;5065031;28;20032;-76
2022/03/20 11:32:27;;;;;;;7.90;2.80;;;;;;;19.36;22.72;101375.72;5051554;28;20494;-76
2022/03/20 11:34:53;;;;;;;7.65;3.10;;;;;;;19.89;21.72;101377.63;5052572;28;20090;-76
2022/03/20 11:37:18;;;;;;;4.95;2.42;;;;;;;19.49;22.12;101358.88;5068579;28;20068;-77
2022/03/20 11:40:15;;;;;;;5.32;2.72;;;;;;;19.19;22.96;101355.72;5065259;28;20033;-76
2022/03/20 11:42:41;;;;;;;5.90;2.75;;;;;;;19.34;22.34;101338.03;5067530;28;20036;-75
2022/03/20 11:45:07;;;;;;;7.93;2.78;;;;;;;19.47;22.22;101336.94;5033943;28;20032;-77
2022/03/20 11:47:40;;;;;;;7.60;2.88;;;;;;;19.35;22.47;101330.09;5082787;28;20028;-76
2022/03/20 11:50:10;;;;;;;3.95;2.28;;;;;;;20.16;21.54;101323.63;5051705;28;20032;-76
2022/03/20 11:52:45;;;;;;;4.88;2.38;;;;;;;20.45;21.15;101324.88;5082581;28;20040;-76
2022/03/20 11:55:42;;;;;;;4.50;2.35;;;;;;;20.30;21.64;101321.63;5068649;28;20098;-76
2022/03/20 11:58:12;;;;;;;5.07;2.50;;;;;;;19.80;21.51;101290.88;5067449;28;20044;-77
2022/03/20 12:00:40;;;;;;;4.55;2.50;;;;;;;20.08;21.44;101312.34;5049822;28;20131;-77
2022/03/20 12:03:08;;;;;;;5.68;2.30;;;;;;;20.16;21.58;101301.66;5068224;28;20049;-75
2022/03/20 12:06:05;;;;;;;6.22;2.47;;;;;;;20.45;21.71;101296.75;5085139;28;20072;-78
2022/03/20 12:09:03;;;;;;;4.15;2.10;;;;;;;20.50;20.85;101299.31;5051050;28;20049;-77
2022/03/20 12:12:02;;;;;;;6.03;2.50;;;;;;;20.93;21.07;101285.28;5069544;28;20063;-78
2022/03/20 12:14:53;;;;;;;5.20;1.70;;;;;;;20.96;20.03;101274.66;5065110;28;20037;-80
2022/03/20 12:17:19;;;;;;;6.53;2.17;;;;;;;20.70;20.06;101270.78;5038988;28;20151;-77
2022/03/20 12:19:48;;;;;;;4.43;2.40;;;;;;;20.85;19.94;101269.63;5054154;28;20087;-76
2022/03/20 12:22:20;;;;;;;4.22;2.08;;;;;;;20.33;20.40;101251.28;5036532;28;20029;-77
2022/03/20 12:24:52;;;;;;;5.88;2.15;;;;;;;21.35;20.17;101261.50;5053147;28;20090;-76
2022/03/20 12:27:24;;;;;;;5.10;2.22;;;;;;;21.90;19.26;101260.16;5054236;28;20045;-76
2022/03/20 12:29:53;;;;;;;6.50;2.15;;;;;;;21.75;18.87;101245.56;5049866;28;20036;-76
2022/03/20 12:32:20;;;;;;;3.92;2.08;;;;;;;21.88;18.60;101246.13;5037483;28;20082;-76
2022/03/20 12:35:08;;;;;;;4.15;2.10;;;;;;;21.68;19.50;101244.00;5037518;28;20503;-77
2022/03/20 12:37:39;;;;;;;3.17;2.20;;;;;;;21.41;19.05;101220.00;5037199;28;20488;-76
2022/03/20 12:40:21;;;;;;;4.00;2.20;;;;;;;21.57;19.17;101246.88;5053030;28;20041;-76
2022/03/20 12:43:02;;;;;;;5.60;2.10;;;;;;;21.20;19.15;101237.16;5050962;28;20128;-77
2022/03/20 12:45:28;;;;;;;3.13;1.80;;;;;;;20.81;19.60;101223.09;5053447;28;20045;-81
2022/03/20 12:48:03;;;;;;;4.85;2.10;;;;;;;20.97;19.79;101211.31;5054120;28;20024;-79
2022/03/20 12:50:34;;;;;;;5.38;2.55;;;;;;;21.34;19.40;101231.59;5037370;28;20047;-79
2022/03/20 12:53:07;;;;;;;5.68;2.10;;;;;;;21.29;19.92;101217.63;5037174;28;20123;-80
2022/03/20 12:55:33;;;;;;;3.78;2.03;;;;;;;21.72;19.11;101209.56;5053478;28;20086;-76
2022/03/20 12:57:59;;;;;;;7.03;2.30;;;;;;;22.83;18.63;101192.38;5037057;28;20480;-75
2022/03/20 13:00:36;;;;;;;7.88;2.00;;;;;;;23.13;18.15;101189.69;5053960;28;20079;-76
2022/03/20 13:03:07;;;;;;;5.38;1.75;;;;;;;23.71;17.57;101181.66;5036699;28;20508;-76
2022/03/20 13:05:35;;;;;;;4.13;1.90;;;;;;;23.59;16.74;101188.19;5020142;28;20091;-78
2022/03/20 13:08:00;;;;;;;7.18;2.28;;;;;;;22.79;17.94;101158.09;5054439;28;20052;-76
2022/03/20 13:10:33;;;;;;;5.88;2.13;;;;;;;22.53;18.33;101178.25;5037385;28;20076;-77
2022/03/20 13:13:01;;;;;;;7.35;1.80;;;;;;;22.66;17.47;101169.97;5054248;28;20041;-77
2022/03/20 13:15:28;;;;;;;4.70;2.15;;;;;;;22.50;17.96;101177.50;5032694;28;20072;-76
2022/03/20 13:17:56;;;;;;;6.15;1.83;;;;;;;22.58;18.29;101165.75;5021229;28;20051;-80
2022/03/20 13:20:24;;;;;;;7.20;2.00;;;;;;;22.51;17.78;101163.38;5053830;28;20036;-76
2022/03/20 13:22:49;;;;;;;5.68;2.05;;;;;;;22.62;17.44;101140.09;5036939;28;20036;-76
2022/03/20 13:25:17;;;;;;;6.72;2.00;;;;;;;22.72;17.27;101149.47;5053436;28;20120;-76
2022/03/20 13:27:47;;;;;;;4.95;2.15;;;;;;;23.41;16.74;101162.31;5035549;28;20569;-76
2022/03/20 13:30:17;;;;;;;5.80;1.85;;;;;;;23.95;16.98;101169.31;5025462;28;20096;-76
2022/03/20 13:32:43;;;;;;;5.18;1.73;;;;;;;23.94;16.19;101162.31;5034585;28;20040;-75
2022/03/20 13:35:11;;;;;;;3.58;1.63;;;;;;;24.22;16.36;101149.78;5017148;28;20162;-76
2022/03/20 13:37:36;;;;;;;3.55;1.60;;;;;;;23.94;16.05;101139.31;5033232;28;20193;-77
2022/03/20 13:40:02;;;;;;;5.20;1.83;;;;;;;23.56;16.63;101167.13;5053448;28;20156;-75
2022/03/20 13:42:29;;;;;;;4.05;1.55;;;;;;;23.46;16.21;101142.75;5054110;28;20040;-76
2022/03/20 13:44:56;;;;;;;3.65;1.83;;;;;;;22.86;16.83;101151.69;5036602;28;20127;-77
2022/03/20 13:47:23;;;;;;;6.13;2.00;;;;;;;22.22;17.58;101141.28;5053285;28;20057;-75
2022/03/20 13:49:49;;;;;;;7.57;1.95;;;;;;;22.21;17.08;101154.53;5033691;28;20496;-75
2022/03/20 13:52:25;;;;;;;8.05;2.60;;;;;;;21.99;17.54;101143.66;5027552;28;20040;-77
2022/03/20 13:55:06;;;;;;;;;;;;;;;21.70;16.95;101147.09;5036971;28;20048;-77
2022/03/20 13:57:32;;;;;;;8.18;2.40;;;;;;;22.26;17.08;101119.13;5066922;28;19928;-78
2022/03/20 14:00:05;;;;;;;5.32;1.80;;;;;;;22.23;15.76;101113.09;5034782;28;20041;-77
2022/03/20 14:02:39;;;;;;;9.55;1.60;;;;;;;21.99;14.11;101139.28;5034967;28;20496;-79
2022/03/20 14:05:10;;;;;;;12.10;1.60;;;;;;;21.92;13.55;101115.69;5045024;28;20408;-76
2022/03/20 14:07:35;;;;;;;7.68;1.52;;;;;;;21.92;13.60;101126.25;5036862;28;20037;-77
2022/03/20 14:10:01;;;;;;;3.47;1.00;;;;;;;21.70;13.56;101126.84;5016634;28;20457;-76
2022/03/20 14:12:31;;;;;;;6.70;1.20;;;;;;;20.84;13.68;101112.25;5035306;28;20047;-76
2022/03/20 14:15:07;;;;;;;5.63;1.05;;;;;;;20.60;14.42;101126.88;5034336;28;20035;-78
2022/03/20 14:17:46;;;;;;;3.72;1.48;;;;;;;21.24;14.06;101112.16;5052961;28;20055;-78
2022/03/20 14:20:15;;;;;;;39.03;3.88;;;;;;;21.04;14.13;101131.13;5064267;28;20056;-76
2022/03/20 14:22:46;;;;;;;7.40;1.63;;;;;;;20.01;14.74;101121.03;5050518;28;20028;-76
2022/03/20 14:25:51;;;;;;;11.55;1.40;;;;;;;21.09;14.67;101120.47;5049551;28;20044;-78
2022/03/20 14:28:24;;;;;;;3.70;1.20;;;;;;;20.01;14.15;101123.66;4936959;29;20039;-78
2022/03/20 14:39:27;;;;;;;4.05;1.58;;;;;;;18.91;15.40;101091.38;5051298;28;20124;-78
2022/03/20 14:41:53;;;;;;;4.20;1.75;;;;;;;19.16;15.05;101084.84;5035670;28;20093;-77
2022/03/20 14:44:24;;;;;;;4.82;1.30;;;;;;;18.78;15.58;101082.78;5034020;28;20036;-78
2022/03/20 14:46:51;;;;;;;4.75;1.80;;;;;;;18.79;15.72;101101.19;5034787;28;20033;-78
2022/03/20 14:49:18;;;;;;;7.30;1.50;;;;;;;18.99;15.57;101098.25;5051307;28;20025;-80
2022/03/20 14:51:47;;;;;;;6.88;1.77;;;;;;;18.65;15.28;101074.22;5019063;28;20076;-76
2022/03/20 14:54:14;;;;;;;7.47;1.60;;;;;;;18.16;16.00;101098.53;5049010;28;20379;-78
2022/03/20 14:56:40;;;;;;;4.22;1.48;;;;;;;17.62;16.39;101056.22;5052075;28;20039;-77
2022/03/20 14:59:08;;;;;;;6.72;2.58;;;;;;;17.56;16.36;101089.56;5017453;28;20030;-78
2022/03/20 15:01:39;;;;;;;4.78;1.50;;;;;;;17.21;16.76;101098.59;5048829;28;20037;-77
2022/03/20 15:04:06;;;;;;;6.65;1.30;;;;;;;16.57;17.28;101052.72;5034297;28;20135;-77
2022/03/20 15:06:32;;;;;;;5.60;1.52;;;;;;;16.40;17.72;101101.72;5066697;28;20063;-77
2022/03/20 15:11:42;;;;;;;2.88;1.33;;;;;;;15.43;18.90;101057.53;5037582;28;20032;-78
2022/03/20 15:14:08;;;;;;;8.25;1.73;;;;;;;15.51;18.75;101092.38;5051385;28;20386;-77
2022/03/20 15:16:34;;;;;;;6.68;1.77;;;;;;;14.79;19.69;101070.59;5017893;28;20040;-78
2022/03/20 15:19:00;;;;;;;9.70;1.77;;;;;;;14.77;20.04;101093.25;5035299;28;20033;-76
2022/03/20 15:21:26;;;;;;;6.68;1.90;;;;;;;14.04;20.45;101062.56;5018267;28;20505;-77
2022/03/20 15:23:52;;;;;;;5.60;2.17;;;;;;;14.11;21.07;101090.44;5035396;28;20029;-77
2022/03/20 15:26:18;;;;;;;9.00;2.60;;;;;;;14.11;20.90;101086.94;5033614;28;20037;-76
2022/03/20 15:28:44;;;;;;;;;;;;;;;14.25;20.58;101098.31;5051308;28;20031;-77
2022/03/20 15:31:09;;;;;;;5.65;2.50;;;;;;;14.05;20.99;101087.78;5060439;28;19921;-77
2022/03/20 15:33:38;;;;;;;;;;;;;;;14.00;20.69;101094.72;5051730;28;20028;-77
2022/03/20 15:36:09;;;;;;;9.52;2.67;;;;;;;13.29;21.51;101074.31;5067405;28;19924;-77
2022/03/20 15:38:36;;;;;;;9.60;3.30;;;;;;;13.16;22.27;101095.03;5051732;28;20356;-75
2022/03/20 15:41:02;;;;;;;9.52;3.15;;;;;;;12.64;22.79;101063.28;5035244;28;20590;-77
2022/03/20 15:43:29;;;;;;;14.50;3.50;;;;;;;12.08;23.61;101081.75;5017802;28;20520;-77
2022/03/20 15:45:54;;;;;;;12.02;2.83;;;;;;;11.93;24.00;101089.34;5034564;28;20037;-76
2022/03/20 15:48:20;;;;;;;;;;;;;;;11.62;23.97;101101.00;5051291;28;20045;-77
2022/03/20 15:50:45;;;;;;;12.57;3.50;;;;;;;11.10;24.75;101088.09;5068580;28;19912;-77
2022/03/20 15:53:12;;;;;;;;;;;;;;;10.91;25.61;101106.81;5055369;28;20044;-80
2022/03/20 15:55:38;;;;;;;11.70;3.60;;;;;;;10.86;25.52;101108.47;5054358;28;20010;-76
2022/03/20 15:58:05;;;;;;;11.05;3.67;;;;;;;10.38;25.88;101057.38;5055653;28;20033;-78
2022/03/20 16:00:32;;;;;;;13.20;5.10;;;;;;;10.31;25.90;101091.81;5054781;28;20601;-78
2022/03/20 16:02:59;;;;;;;14.73;3.33;;;;;;;10.18;26.25;101095.88;5054392;28;20075;-77
2022/03/20 16:05:26;;;;;;;12.55;2.70;;;;;;;9.99;26.11;101109.28;5053286;28;20403;-77
2022/03/20 16:07:52;;;;;;;12.60;4.18;;;;;;;9.74;26.14;101087.16;5037136;28;20510;-78
2022/03/20 16:10:17;;;;;;;;;;;;;;;9.79;26.92;101107.13;5038404;28;20025;-76
2022/03/20 16:12:43;;;;;;;11.82;3.00;;;;;;;9.72;26.82;101114.75;5069719;28;19917;-78
2022/03/20 16:15:09;;;;;;;;;;;;;;;9.64;26.85;101119.75;5056318;28;20089;-77
2022/03/20 16:17:35;;;;;;;12.40;2.80;;;;;;;9.44;27.21;101093.41;5070227;28;20295;-77
2022/03/20 16:20:00;;;;;;;;;;;;;;;9.38;27.28;101111.34;5005891;28;20033;-78
2022/03/20 16:22:26;;;;;;;13.70;2.53;;;;;;;9.23;27.17;101087.69;5068153;28;19978;-78
2022/03/20 16:30:20;;;;;;;14.85;4.75;;;;;;;8.92;28.05;101107.63;5041003;28;20047;-78
2022/03/20 16:32:46;;;;;;;14.18;4.13;;;;;;;8.84;28.14;101089.34;5055060;28;20033;-77
2022/03/20 16:35:12;;;;;;;;;;;;;;;8.92;28.16;101105.03;5055216;28;20025;-78
2022/03/20 16:37:37;;;;;;;14.93;2.90;;;;;;;8.75;28.19;101077.84;5070369;28;19916;-79
2022/03/20 16:40:03;;;;;;;;;;;;;;;8.85;28.23;101116.09;5051672;28;20124;-77
2022/03/20 16:42:29;;;;;;;12.55;2.80;;;;;;;8.84;28.05;101110.03;5037497;28;19959;-77
2022/03/20 16:45:04;;;;;;;12.90;2.90;;;;;;;8.68;28.58;101094.94;5055121;28;20040;-77
2022/03/20 16:47:33;;;;;;;14.95;3.40;;;;;;;8.44;28.93;101081.38;5052973;28;20036;-78
2022/03/20 16:50:04;;;;;;;19.00;3.05;;;;;;;8.70;28.63;101113.06;5038304;28;20055;-79
2022/03/20 16:52:30;;;;;;;13.45;3.13;;;;;;;8.59;29.35;101110.22;5054978;28;20076;-78
2022/03/20 16:54:55;;;;;;;8.50;4.50;;;;;;;8.55;29.01;101121.31;5020614;28;20537;-79
2022/03/20 16:57:21;;;;;;;14.48;3.90;;;;;;;8.33;29.05;101124.97;5055135;28;20033;-77
2022/03/20 16:59:47;;;;;;;17.05;3.50;;;;;;;8.42;29.05;101117.50;5022812;28;20169;-78
2022/03/20 17:02:13;;;;;;;9.63;3.10;;;;;;;8.38;29.48;101128.59;5055326;28;20040;-76
2022/03/20 17:04:39;;;;;;;11.88;3.28;;;;;;;8.39;29.37;101126.06;5055117;28;20525;-77
2022/03/20 17:07:05;;;;;;;7.38;3.38;;;;;;;8.42;29.26;101130.44;5053998;28;20045;-78
2022/03/20 17:09:32;;;;;;;;;;;;;;;8.39;29.30;101130.38;5053906;28;20186;-78
2022/03/20 17:11:58;;;;;;;16.98;4.75;;;;;;;8.37;29.10;101108.75;5054229;28;20003;-80
2022/03/20 17:14:24;;;;;;;14.65;6.15;;;;;;;8.48;29.22;101107.34;5038575;28;20037;-76
2022/03/20 17:16:50;;;;;;;15.25;3.58;;;;;;;8.44;29.65;101096.88;5036796;28;20034;-77
2022/03/20 17:19:17;;;;;;;11.35;3.97;;;;;;;8.49;29.26;101106.50;5039010;28;20082;-77
2022/03/20 17:21:43;;;;;;;11.82;3.90;;;;;;;8.49;29.35;101114.25;5018163;28;20112;-79
2022/03/20 17:24:10;;;;;;;11.77;4.25;;;;;;;8.33;29.26;101101.69;5036005;28;20029;-77
2022/03/20 17:26:37;;;;;;;10.05;3.42;;;;;;;8.27;29.98;101105.00;5020453;28;20032;-77
2022/03/20 17:29:03;;;;;;;8.50;2.92;;;;;;;8.20;29.64;101118.59;5034205;28;20040;-78
2022/03/20 17:31:29;;;;;;;11.88;3.05;;;;;;;8.05;30.35;101092.28;5033882;28;20120;-78
2022/03/20 17:33:55;;;;;;;13.43;3.22;;;;;;;8.26;29.99;101120.47;5037955;28;20041;-79
2022/03/20 17:36:21;;;;;;;;;;;;;;;8.30;30.10;101124.91;5050133;28;20037;-81
2022/03/20 17:38:46;;;;;;;10.07;2.90;;;;;;;8.12;30.26;101123.53;5053815;28;19963;-77
2022/03/20 17:41:12;;;;;;;10.80;3.20;;;;;;;7.92;30.74;101096.22;5048899;28;20064;-76
2022/03/20 17:43:38;;;;;;;;;;;;;;;8.00;30.60;101122.28;5037104;28;20415;-77
2022/03/20 17:46:04;;;;;;;9.00;3.05;;;;;;;7.98;30.27;101127.41;5068721;28;19923;-79
2022/03/20 17:48:29;;;;;;;;;;;;;;;7.77;31.20;101129.34;5037053;28;20044;-79
2022/03/20 17:51:01;;;;;;;8.85;3.03;;;;;;;7.75;30.88;101118.09;5054551;28;20391;-78
2022/03/20 17:53:31;;;;;;;6.82;3.25;;;;;;;7.67;31.02;101093.75;5038980;28;20064;-76
2022/03/20 17:55:57;;;;;;;10.52;3.67;;;;;;;7.80;30.80;101121.69;5051491;28;20080;-80
2022/03/20 17:58:23;;;;;;;12.50;3.88;;;;;;;7.72;31.07;101097.34;5019667;28;20454;-78
2022/03/20 18:00:48;;;;;;;10.27;4.18;;;;;;;7.92;30.64;101124.63;5054501;28;20086;-80
2022/03/20 18:08:43;;;;;;;13.55;3.47;;;;;;;8.65;29.81;101128.47;5053114;28;20504;-77
2022/03/20 18:11:11;;;;;;;10.57;2.83;;;;;;;8.83;29.66;101128.09;5055783;28;20044;-76
2022/03/20 18:13:37;;;;;;;9.43;2.83;;;;;;;8.81;29.27;101103.91;5025491;28;20107;-82
2022/03/20 18:16:03;;;;;;;;;;;;;;;9.19;29.32;101127.28;5056495;28;20048;-82
2022/03/20 18:18:35;;;;;;;12.20;2.95;;;;;;;8.78;29.20;101076.22;5043942;28;20280;-80
2022/03/20 18:21:00;;;;;;;;;;;;;;;9.15;29.14;101123.75;5046002;28;20076;-76
2022/03/20 18:23:29;;;;;;;12.93;3.50;;;;;;;8.88;29.38;101100.63;5037114;28;20303;-78
2022/03/20 18:26:04;;;;;;;8.15;3.65;;;;;;;8.91;28.84;101090.34;5041172;28;20040;-78
2022/03/20 18:28:44;;;;;;;11.32;4.53;;;;;;;8.93;28.98;101077.44;5036805;28;20055;-78
2022/03/20 18:31:19;;;;;;;10.73;4.57;;;;;;;9.15;28.70;101103.91;5039989;28;20059;-79
2022/03/20 18:33:45;;;;;;;10.88;4.53;;;;;;;9.11;28.31;101052.88;5038438;28;20036;-75
2022/03/20 18:36:13;;;;;;;8.52;4.25;;;;;;;9.18;28.00;101089.31;5042287;28;20033;-76
2022/03/20 18:38:41;;;;;;;10.82;4.20;;;;;;;9.11;28.27;101098.63;5073320;28;20514;-74
2022/03/20 18:41:07;;;;;;;13.70;3.92;;;;;;;8.83;28.39;101078.94;5052354;28;20052;-78
2022/03/20 18:43:34;;;;;;;12.10;4.00;;;;;;;8.58;29.16;101086.06;5055791;28;20036;-81
2022/03/20 18:46:00;;;;;;;10.20;3.92;;;;;;;8.76;29.07;101089.97;5038380;28;20512;-79
2022/03/20 18:48:25;;;;;;;9.55;3.20;;;;;;;8.85;29.13;101098.84;5020172;28;20037;-78
2022/03/20 18:50:51;;;;;;;10.75;3.05;;;;;;;8.80;28.95;101087.50;5053041;28;20041;-78
2022/03/20 18:53:17;;;;;;;10.57;3.53;;;;;;;8.65;29.05;101081.91;5053998;28;20102;-78
2022/03/20 18:55:43;;;;;;;12.50;3.47;;;;;;;8.81;29.20;101104.78;5054874;28;20041;-78
2022/03/20 18:58:09;;;;;;;10.73;3.13;;;;;;;8.74;29.52;101096.81;5037831;28;20072;-77
2022/03/20 19:00:35;;;;;;;10.52;3.13;;;;;;;8.78;29.45;101119.34;5055872;28;20043;-79
2022/03/20 19:03:01;;;;;;;9.32;3.65;;;;;;;8.84;29.41;101091.03;5037712;28;20041;-81
2022/03/20 19:05:27;;;;;;;11.48;2.95;;;;;;;8.73;29.72;101089.88;5049946;28;20045;-78
2022/03/20 19:07:53;;;;;;;;;;;;;;;9.08;29.11;101116.69;5055031;28;20715;-81
2022/03/20 19:10:19;;;;;;;9.38;3.10;;;;;;;8.83;29.53;101112.56;5039052;28;20003;-77
2022/03/20 19:12:47;;;;;;;9.95;3.00;;;;;;;8.85;29.33;101100.56;5037845;28;20040;-81
2022/03/20 19:15:13;;;;;;;6.43;2.80;;;;;;;8.84;29.66;101083.25;5035120;28;20088;-77
2022/03/20 19:17:39;;;;;;;9.07;2.95;;;;;;;8.84;29.54;101103.97;5023721;28;20502;-78
2022/03/20 19:20:06;;;;;;;6.63;2.80;;;;;;;8.58;29.44;101070.53;5052057;28;20120;-78
2022/03/20 19:22:32;;;;;;;7.72;2.45;;;;;;;8.67;30.08;101108.72;5019051;28;20055;-79
2022/03/20 19:24:58;;;;;;;7.45;2.65;;;;;;;8.53;29.70;101076.44;5038763;28;20029;-78
2022/03/20 19:27:23;;;;;;;6.00;2.10;;;;;;;8.47;30.41;101102.13;5058655;28;20099;-83
2022/03/20 19:29:49;;;;;;;5.65;2.28;;;;;;;8.31;30.20;101070.63;5039854;28;20029;-79
2022/03/20 19:32:16;;;;;;;7.13;2.22;;;;;;;8.20;30.11;101043.63;5024432;28;20114;-79
2022/03/20 19:40:10;;;;;;;6.57;2.13;;;;;;;8.29;30.07;101061.97;5043515;28;20041;-79
2022/03/20 19:42:36;;;;;;;7.13;2.08;;;;;;;8.28;30.36;101064.50;5062568;28;20025;-79
2022/03/20 19:45:04;;;;;;;;;;;;;;;8.67;30.01;101103.53;5035396;28;20380;-77
2022/03/20 19:47:29;;;;;;;;;;;;;;;8.74;30.30;101107.16;5057865;28;19912;-81
2022/03/20 19:49:56;;;;;;;5.45;2.35;;;;;;;8.65;30.49;101105.19;5058947;28;20310;-78
2022/03/20 19:52:22;;;;;;;7.22;2.40;;;;;;;8.49;30.03;101080.66;5057816;28;20123;-75
2022/03/20 19:54:48;;;;;;;8.38;2.15;;;;;;;8.50;30.36;101072.03;5057347;28;20048;-76
2022/03/20 19:57:14;;;;;;;6.30;2.35;;;;;;;8.41;30.59;101082.13;5057471;28;20488;-78
2022/03/20 19:59:40;;;;;;;8.75;2.47;;;;;;;8.53;30.35;101107.47;5005081;28;20045;-78
2022/03/20 20:02:06;;;;;;;11.18;2.42;;;;;;;8.22;30.83;101070.38;5050758;28;20040;-77
2022/03/20 20:04:32;;;;;;;8.40;2.45;;;;;;;8.34;31.24;101104.34;5039896;28;20053;-81
2022/03/20 20:06:57;;;;;;;9.45;2.85;;;;;;;8.11;31.40;101084.72;5040038;28;20476;-80
2022/03/20 20:09:23;;;;;;;14.77;2.53;;;;;;;7.93;31.32;101072.16;5057465;28;20040;-76
2022/03/20 20:11:51;;;;;;;12.90;3.13;;;;;;;7.94;31.77;101096.28;5057385;28;20048;-78
2022/03/20 20:17:03;;;;;;;12.85;3.22;;;;;;;7.72;32.05;101063.75;5056240;28;20575;-76
2022/03/20 20:19:28;;;;;;;16.27;8.15;;;;;;;7.79;31.97;101076.00;5038869;28;20051;-79
2022/03/20 20:21:54;;;;;;;11.32;3.50;;;;;;;7.92;32.37;101085.88;5007254;28;20060;-78
2022/03/20 20:24:20;;;;;;;11.73;3.80;;;;;;;7.94;32.41;101110.06;5022871;28;20488;-79
2022/03/20 20:26:46;;;;;;;5.88;2.63;;;;;;;7.95;32.62;101108.34;5056283;28;20045;-76
2022/03/20 20:29:12;;;;;;;10.98;3.30;;;;;;;7.78;32.57;101087.19;5056120;28;20533;-81
2022/03/20 20:31:41;;;;;;;10.05;2.85;;;;;;;7.36;33.46;101060.09;5025960;28;20047;-78
2022/03/20 20:34:08;;;;;;;9.38;2.95;;;;;;;7.30;33.59;101072.81;5046279;28;20070;-78
2022/03/20 20:36:34;;;;;;;7.88;2.70;;;;;;;7.33;33.98;101075.50;5038999;28;20052;-79
2022/03/20 20:38:59;;;;;;;11.65;2.92;;;;;;;7.41;33.86;101069.69;5038436;28;20059;-77
2022/03/20 20:41:26;;;;;;;9.63;3.10;;;;;;;7.39;34.31;101077.41;5040810;28;20041;-81
2022/03/20 20:43:52;;;;;;;9.77;2.97;;;;;;;7.62;34.21;101102.22;5023199;28;20085;-77
2022/03/20 20:46:18;;;;;;;8.95;2.90;;;;;;;7.41;34.52;101075.72;5056619;28;20071;-76
2022/03/20 20:48:44;;;;;;;6.40;2.78;;;;;;;7.46;34.93;101105.13;5039273;28;20029;-77
2022/03/20 20:51:10;;;;;;;6.88;2.70;;;;;;;7.22;34.90;101099.19;5054887;28;20115;-76
2022/03/20 20:53:36;;;;;;;7.07;2.60;;;;;;;7.37;35.16;101104.84;5022097;28;20134;-77
2022/03/20 20:56:02;;;;;;;10.00;2.67;;;;;;;7.37;34.73;101097.97;5055323;28;20041;-76
2022/03/20 20:58:29;;;;;;;;;;;;;;;7.42;35.47;101102.41;5039268;28;20066;-78
2022/03/20 21:00:56;;;;;;;9.52;2.70;;;;;;;7.08;35.49;101081.56;5038323;28;20367;-77
2022/03/20 21:03:21;;;;;;;;;;;;;;;7.31;36.03;101102.09;5039747;28;20057;-78
2022/03/20 21:05:47;;;;;;;6.53;2.45;;;;;;;6.91;36.09;101066.34;5055632;28;19927;-77
2022/03/20 21:10:58;;;;;;;9.13;2.67;;;;;;;6.47;37.11;101042.53;5026364;28;20412;-76
2022/03/20 21:13:26;;;;;;;9.18;4.18;;;;;;;6.75;36.94;101106.25;5049654;28;20032;-77
2022/03/20 21:15:53;;;;;;;7.70;2.85;;;;;;;6.53;37.72;101059.06;5034936;28;20504;-78
2022/03/20 21:18:19;;;;;;;11.25;3.80;;;;;;;6.52;37.48;101077.97;5044217;28;20043;-79
2022/03/20 21:20:45;;;;;;;11.15;3.65;;;;;;;6.40;37.92;101090.41;5035121;28;20045;-80
2022/03/20 21:23:11;;;;;;;10.95;3.63;;;;;;;6.25;38.58;101066.66;5038874;28;20167;-78
2022/03/20 21:25:37;;;;;;;9.50;2.90;;;;;;;6.09;38.47;101083.25;5018341;28;20048;-78
2022/03/20 21:28:03;;;;;;;;;;;;;;;5.95;39.19;101098.19;5037221;28;20120;-76
2022/03/20 21:30:28;;;;;;;9.93;3.03;;;;;;;5.76;39.46;101078.56;5054822;28;19963;-77
2022/03/20 21:32:55;;;;;;;6.97;2.75;;;;;;;5.76;38.99;101085.44;5054820;28;20037;-77
2022/03/20 21:35:21;;;;;;;12.98;3.17;;;;;;;5.59;39.04;101066.78;5038359;28;20456;-78
2022/03/20 21:37:48;;;;;;;11.25;2.92;;;;;;;5.74;38.96;101102.53;5053581;28;20102;-77
2022/03/20 21:40:14;;;;;;;9.77;2.78;;;;;;;5.55;39.14;101065.78;5053857;28;20048;-78
2022/03/20 21:42:46;;;;;;;10.75;3.08;;;;;;;5.68;39.33;101104.84;5022026;28;20387;-76
2022/03/20 21:45:13;;;;;;;10.60;3.75;;;;;;;5.56;39.28;101074.38;5038084;28;20036;-78
2022/03/20 21:47:40;;;;;;;9.57;2.97;;;;;;;5.65;39.11;101081.56;5036863;28;20037;-78
2022/03/20 21:50:07;;;;;;;7.88;3.60;;;;;;;5.92;38.86;101099.81;5054374;28;20101;-76
2022/03/20 21:52:35;;;;;;;10.32;3.40;;;;;;;5.88;39.13;101096.19;5037125;28;20036;-77
2022/03/20 21:55:01;;;;;;;7.93;3.05;;;;;;;5.51;38.89;101058.75;5037438;28;20045;-78
2022/03/20 21:57:27;;;;;;;;;;;;;;;5.91;39.03;101088.59;5033891;28;20491;-77
2022/03/20 21:59:53;;;;;;;9.02;2.85;;;;;;;5.88;38.85;101087.59;5043604;28;19932;-77
2022/03/20 22:02:19;;;;;;;11.20;2.83;;;;;;;5.82;39.29;101088.25;5033951;28;20051;-77
2022/03/20 22:04:45;;;;;;;;;;;;;;;6.01;38.95;101089.84;5037796;28;20166;-76
2022/03/20 22:07:11;;;;;;;7.85;3.20;;;;;;;5.98;38.84;101089.72;5024122;28;19921;-76
2022/03/20 22:09:36;;;;;;;6.57;2.67;;;;;;;5.93;38.99;101063.78;5026495;28;20045;-78
2022/03/20 22:12:03;;;;;;;12.57;4.22;;;;;;;5.77;38.94;101051.13;5032519;28;20037;-78
2022/03/20 22:14:28;;;;;;;;;;;;;;;6.04;38.75;101085.66;5019994;28;20403;-76
2022/03/20 22:16:54;;;;;;;9.80;3.13;;;;;;;5.84;39.08;101063.41;5054615;28;19921;-76
2022/03/20 22:19:20;;;;;;;;;;;;;;;5.98;38.68;101097.44;5053126;28;20047;-75
2022/03/20 22:21:45;;;;;;;9.68;3.60;;;;;;;5.68;39.01;101072.28;5019893;28;20010;-77
2022/03/20 22:24:11;;;;;;;12.85;4.00;;;;;;;5.81;39.26;101099.34;5054170;28;20087;-77
2022/03/20 22:26:38;;;;;;;8.50;3.65;;;;;;;5.71;39.13;101082.69;5037039;28;20036;-78
2022/03/20 22:29:10;;;;;;;6.55;3.75;;;;;;;5.60;39.56;101083.97;5036794;28;20064;-76
2022/03/20 22:31:36;;;;;;;10.75;4.03;;;;;;;5.48;40.12;101094.66;5033265;28;20116;-76
2022/03/20 22:34:02;;;;;;;14.43;4.15;;;;;;;5.32;40.31;101080.31;5028679;28;20035;-76
2022/03/20 22:39:12;;;;;;;10.63;3.95;;;;;;;5.52;40.35;101117.13;5053195;28;20041;-76
2022/03/20 22:41:38;;;;;;;8.20;3.78;;;;;;;5.54;40.47;101100.06;5035929;28;20529;-78
2022/03/20 22:44:05;;;;;;;10.57;3.17;;;;;;;5.60;40.83;101110.59;5037270;28;20116;-75
2022/03/20 22:46:31;;;;;;;9.75;3.60;;;;;;;5.25;41.54;101085.16;5054656;28;20033;-77
2022/03/20 22:51:42;;;;;;;7.95;3.38;;;;;;;5.24;42.54;101110.00;5025019;28;20574;-77
2022/03/20 22:54:11;;;;;;;8.63;3.50;;;;;;;5.23;42.75;101112.53;5036482;28;20037;-75
2022/03/20 22:56:38;;;;;;;13.32;3.63;;;;;;;5.26;42.89;101107.47;5036841;28;20041;-76
2022/03/20 22:59:04;;;;;;;8.32;3.72;;;;;;;5.03;43.34;101089.41;5036254;28;20097;-77
2022/03/20 23:01:30;;;;;;;8.30;3.28;;;;;;;4.87;43.51;101092.19;5036725;28;20036;-77
2022/03/20 23:03:58;;;;;;;9.30;3.40;;;;;;;4.90;44.25;101112.84;5052495;28;20562;-77
2022/03/20 23:06:25;;;;;;;9.25;3.10;;;;;;;4.67;44.82;101098.16;5052564;28;20045;-77
2022/03/20 23:08:51;;;;;;;7.00;3.08;;;;;;;4.44;45.04;101074.06;5016710;28;20047;-75
2022/03/20 23:11:18;;;;;;;6.85;3.40;;;;;;;4.52;45.45;101118.94;5025728;28;20045;-77
2022/03/20 23:13:43;;;;;;;8.40;3.45;;;;;;;4.22;45.98;101097.94;5035360;28;20028;-76
2022/03/20 23:16:11;;;;;;;9.63;3.45;;;;;;;4.34;45.44;101104.47;5032186;28;20045;-75
2022/03/20 23:18:36;;;;;;;7.15;3.05;;;;;;;4.29;46.15;101115.38;5029998;28;20059;-77
2022/03/20 23:21:03;;;;;;;8.55;3.42;;;;;;;4.18;45.79;101083.22;5018691;28;20037;-76